sensor_id;sensor_type;location;lat;lon;timestamp;P1;durP1;ratioP1;P2;durP2;ratioP2
38879;SDS011;25887;30.194;-97.880;2023-08-07T00:02:11;2.50;;;0.80;;
38879;SDS011;25887;30.194;-97.880;2023-08-07T00:04:37;0.98;;;0.60;;
38879;SDS011;25887;30.194;-97.880;2023-08-07T00:07:03;1.40;;;0.80;;
38879;SDS011;25887;30.194;-97.880;2023-08-07T00:09:45;2.05;;;0.90;;
38879;SDS011;25887;30.194;-97.880;2023-08-07T00:12:16;2.17;;;0.82;;
38879;SDS011;25887;30.194;-97.880;2023-08-07T00:14:42;4.32;;;0.80;;
38879;SDS011;25887;30.194;-97.880;2023-08-07T00:17:09;2.38;;;0.90;;
38879;SDS011;25887;30.194;-97.880;2023-08-07T00:19:35;2.53;;;1.15;;
38879;SDS011;25887;30.194;-97.880;2023-08-07T00:22:01;2.05;;;0.88;;
38879;SDS011;25887;30.194;-97.880;2023-08-07T00:24:27;0.75;;;0.70;;
38879;SDS011;25887;30.194;-97.880;2023-08-07T00:26:53;0.50;;;0.50;;
38879;SDS011;25887;30.194;-97.880;2023-08-07T00:29:19;2.20;;;0.90;;
38879;SDS011;25887;30.194;-97.880;2023-08-07T00:31:45;0.80;;;0.80;;
38879;SDS011;25887;30.194;-97.880;2023-08-07T00:34:11;1.48;;;0.70;;
38879;SDS011;25887;30.194;-97.880;2023-08-07T00:36:37;1.02;;;0.93;;
38879;SDS011;25887;30.194;-97.880;2023-08-07T00:39:04;1.13;;;0.60;;
38879;SDS011;25887;30.194;-97.880;2023-08-07T00:41:30;5.50;;;0.80;;
38879;SDS011;25887;30.194;-97.880;2023-08-07T00:43:56;1.33;;;0.65;;
38879;SDS011;25887;30.194;-97.880;2023-08-07T00:46:24;2.47;;;0.73;;
38879;SDS011;25887;30.194;-97.880;2023-08-07T00:48:51;1.98;;;1.00;;
38879;SDS011;25887;30.194;-97.880;2023-08-07T00:51:19;1.30;;;0.80;;
38879;SDS011;25887;30.194;-97.880;2023-08-07T00:53:46;4.40;;;0.77;;
38879;SDS011;25887;30.194;-97.880;2023-08-07T00:56:13;6.95;;;0.60;;
38879;SDS011;25887;30.194;-97.880;2023-08-07T00:58:40;3.25;;;0.85;;
38879;SDS011;25887;30.194;-97.880;2023-08-07T01:01:07;1.20;;;0.65;;
38879;SDS011;25887;30.194;-97.880;2023-08-07T01:03:33;5.03;;;0.80;;
38879;SDS011;25887;30.194;-97.880;2023-08-07T01:06:00;3.58;;;0.70;;
38879;SDS011;25887;30.194;-97.880;2023-08-07T01:08:27;1.80;;;0.90;;
38879;SDS011;25887;30.194;-97.880;2023-08-07T01:11:07;1.35;;;0.98;;
38879;SDS011;25887;30.194;-97.880;2023-08-07T01:14:28;2.22;;;1.00;;
38879;SDS011;25887;30.194;-97.880;2023-08-07T01:16:33;1.15;;;0.98;;
38879;SDS011;25887;30.194;-97.880;2023-08-07T01:21:34;1.92;;;1.15;;
38879;SDS011;25887;30.194;-97.880;2023-08-07T01:24:00;2.58;;;1.13;;
38879;SDS011;25887;30.194;-97.880;2023-08-07T01:26:27;1.88;;;0.95;;
38879;SDS011;25887;30.194;-97.880;2023-08-07T01:28:58;1.00;;;0.90;;
38879;SDS011;25887;30.194;-97.880;2023-08-07T01:31:36;2.53;;;0.80;;
38879;SDS011;25887;30.194;-97.880;2023-08-07T01:34:05;2.33;;;1.00;;
38879;SDS011;25887;30.194;-97.880;2023-08-07T01:36:36;2.80;;;1.30;;
38879;SDS011;25887;30.194;-97.880;2023-08-07T01:39:04;3.05;;;0.93;;
38879;SDS011;25887;30.194;-97.880;2023-08-07T01:41:34;3.22;;;0.80;;
38879;SDS011;25887;30.194;-97.880;2023-08-07T01:44:02;1.63;;;0.88;;
38879;SDS011;25887;30.194;-97.880;2023-08-07T01:46:29;2.08;;;1.10;;
38879;SDS011;25887;30.194;-97.880;2023-08-07T01:48:55;3.45;;;1.23;;
38879;SDS011;25887;30.194;-97.880;2023-08-07T01:51:21;3.22;;;1.10;;
38879;SDS011;25887;30.194;-97.880;2023-08-07T01:53:47;3.30;;;1.02;;
38879;SDS011;25887;30.194;-97.880;2023-08-07T01:56:13;1.42;;;1.00;;
38879;SDS011;25887;30.194;-97.880;2023-08-07T01:58:39;3.65;;;1.77;;
38879;SDS011;25887;30.194;-97.880;2023-08-07T02:01:05;3.75;;;1.10;;
38879;SDS011;25887;30.194;-97.880;2023-08-07T02:03:32;2.17;;;1.05;;
38879;SDS011;25887;30.194;-97.880;2023-08-07T02:05:58;2.38;;;1.05;;
38879;SDS011;25887;30.194;-97.880;2023-08-07T02:08:24;3.22;;;1.55;;
38879;SDS011;25887;30.194;-97.880;2023-08-07T02:10:51;5.05;;;0.98;;
38879;SDS011;25887;30.194;-97.880;2023-08-07T02:13:17;3.10;;;1.20;;
38879;SDS011;25887;30.194;-97.880;2023-08-07T02:15:43;2.70;;;1.08;;
38879;SDS011;25887;30.194;-97.880;2023-08-07T02:18:09;1.98;;;0.90;;
38879;SDS011;25887;30.194;-97.880;2023-08-07T02:20:35;7.00;;;1.40;;
38879;SDS011;25887;30.194;-97.880;2023-08-07T02:23:02;6.35;;;1.30;;
38879;SDS011;25887;30.194;-97.880;2023-08-07T02:25:28;6.50;;;1.20;;
38879;SDS011;25887;30.194;-97.880;2023-08-07T02:27:54;4.20;;;1.38;;
38879;SDS011;25887;30.194;-97.880;2023-08-07T02:30:21;2.15;;;1.35;;
38879;SDS011;25887;30.194;-97.880;2023-08-07T02:32:47;4.20;;;1.10;;
38879;SDS011;25887;30.194;-97.880;2023-08-07T02:38:35;6.70;;;1.02;;
38879;SDS011;25887;30.194;-97.880;2023-08-07T02:41:01;3.55;;;1.15;;
38879;SDS011;25887;30.194;-97.880;2023-08-07T02:43:28;4.18;;;1.08;;
38879;SDS011;25887;30.194;-97.880;2023-08-07T02:45:54;2.38;;;0.95;;
38879;SDS011;25887;30.194;-97.880;2023-08-07T02:48:39;2.72;;;1.50;;
38879;SDS011;25887;30.194;-97.880;2023-08-07T02:51:05;7.75;;;1.23;;
38879;SDS011;25887;30.194;-97.880;2023-08-07T02:53:32;6.63;;;1.70;;
38879;SDS011;25887;30.194;-97.880;2023-08-07T02:55:58;2.45;;;1.00;;
38879;SDS011;25887;30.194;-97.880;2023-08-07T02:58:24;2.65;;;1.15;;
38879;SDS011;25887;30.194;-97.880;2023-08-07T03:00:50;3.53;;;1.42;;
38879;SDS011;25887;30.194;-97.880;2023-08-07T03:10:20;3.00;;;1.20;;
38879;SDS011;25887;30.194;-97.880;2023-08-07T03:12:50;4.68;;;1.30;;
38879;SDS011;25887;30.194;-97.880;2023-08-07T03:15:17;2.70;;;1.20;;
38879;SDS011;25887;30.194;-97.880;2023-08-07T03:17:43;6.57;;;1.45;;
38879;SDS011;25887;30.194;-97.880;2023-08-07T03:26:53;5.38;;;1.50;;
38879;SDS011;25887;30.194;-97.880;2023-08-07T03:29:19;2.85;;;1.25;;
38879;SDS011;25887;30.194;-97.880;2023-08-07T03:34:46;3.15;;;1.17;;
38879;SDS011;25887;30.194;-97.880;2023-08-07T03:37:30;2.75;;;1.30;;
38879;SDS011;25887;30.194;-97.880;2023-08-07T03:46:21;2.70;;;1.00;;
38879;SDS011;25887;30.194;-97.880;2023-08-07T03:48:47;2.88;;;1.13;;
38879;SDS011;25887;30.194;-97.880;2023-08-07T03:51:13;5.93;;;1.70;;
38879;SDS011;25887;30.194;-97.880;2023-08-07T03:53:44;2.92;;;1.40;;
38879;SDS011;25887;30.194;-97.880;2023-08-07T03:56:11;5.88;;;1.30;;
38879;SDS011;25887;30.194;-97.880;2023-08-07T03:58:37;6.35;;;1.50;;
38879;SDS011;25887;30.194;-97.880;2023-08-07T04:01:19;4.78;;;1.65;;
38879;SDS011;25887;30.194;-97.880;2023-08-07T04:03:48;3.15;;;1.25;;
38879;SDS011;25887;30.194;-97.880;2023-08-07T04:06:14;3.53;;;1.48;;
38879;SDS011;25887;30.194;-97.880;2023-08-07T04:08:59;2.40;;;1.40;;
38879;SDS011;25887;30.194;-97.880;2023-08-07T04:15:25;5.40;;;1.35;;
38879;SDS011;25887;30.194;-97.880;2023-08-07T04:17:51;4.20;;;1.40;;
38879;SDS011;25887;30.194;-97.880;2023-08-07T04:23:07;5.00;;;1.38;;
38879;SDS011;25887;30.194;-97.880;2023-08-07T04:29:09;2.65;;;1.40;;
38879;SDS011;25887;30.194;-97.880;2023-08-07T04:32:13;6.85;;;1.85;;
38879;SDS011;25887;30.194;-97.880;2023-08-07T04:38:01;4.60;;;1.30;;
38879;SDS011;25887;30.194;-97.880;2023-08-07T04:40:28;5.82;;;1.95;;
38879;SDS011;25887;30.194;-97.880;2023-08-07T04:42:56;1.92;;;1.60;;
38879;SDS011;25887;30.194;-97.880;2023-08-07T04:45:24;3.75;;;1.40;;
38879;SDS011;25887;30.194;-97.880;2023-08-07T04:47:50;3.08;;;1.60;;
38879;SDS011;25887;30.194;-97.880;2023-08-07T04:50:16;2.60;;;1.40;;
38879;SDS011;25887;30.194;-97.880;2023-08-07T04:52:43;6.15;;;1.73;;
38879;SDS011;25887;30.194;-97.880;2023-08-07T04:55:09;1.55;;;1.30;;
38879;SDS011;25887;30.194;-97.880;2023-08-07T04:57:35;3.53;;;1.70;;
38879;SDS011;25887;30.194;-97.880;2023-08-07T05:00:08;3.00;;;1.70;;
38879;SDS011;25887;30.194;-97.880;2023-08-07T05:02:35;5.72;;;1.73;;
38879;SDS011;25887;30.194;-97.880;2023-08-07T05:05:01;3.47;;;1.38;;
38879;SDS011;25887;30.194;-97.880;2023-08-07T05:07:28;3.00;;;1.25;;
38879;SDS011;25887;30.194;-97.880;2023-08-07T05:13:16;2.05;;;1.20;;
38879;SDS011;25887;30.194;-97.880;2023-08-07T05:15:42;7.55;;;1.65;;
38879;SDS011;25887;30.194;-97.880;2023-08-07T05:18:09;5.75;;;1.60;;
38879;SDS011;25887;30.194;-97.880;2023-08-07T05:20:37;4.88;;;1.60;;
38879;SDS011;25887;30.194;-97.880;2023-08-07T05:23:04;4.50;;;1.50;;
38879;SDS011;25887;30.194;-97.880;2023-08-07T05:25:30;6.35;;;1.60;;
38879;SDS011;25887;30.194;-97.880;2023-08-07T05:27:56;3.42;;;1.70;;
38879;SDS011;25887;30.194;-97.880;2023-08-07T05:30:26;6.70;;;1.95;;
38879;SDS011;25887;30.194;-97.880;2023-08-07T05:32:52;2.53;;;1.48;;
38879;SDS011;25887;30.194;-97.880;2023-08-07T05:35:18;3.13;;;1.48;;
38879;SDS011;25887;30.194;-97.880;2023-08-07T05:37:59;3.63;;;1.70;;
38879;SDS011;25887;30.194;-97.880;2023-08-07T05:40:25;4.63;;;1.60;;
38879;SDS011;25887;30.194;-97.880;2023-08-07T05:42:51;3.28;;;1.80;;
38879;SDS011;25887;30.194;-97.880;2023-08-07T05:45:17;2.78;;;1.52;;
38879;SDS011;25887;30.194;-97.880;2023-08-07T05:47:43;3.95;;;1.70;;
38879;SDS011;25887;30.194;-97.880;2023-08-07T05:56:19;4.95;;;1.60;;
38879;SDS011;25887;30.194;-97.880;2023-08-07T05:58:45;3.60;;;1.50;;
38879;SDS011;25887;30.194;-97.880;2023-08-07T06:01:12;5.53;;;1.83;;
38879;SDS011;25887;30.194;-97.880;2023-08-07T06:03:39;3.17;;;1.50;;
38879;SDS011;25887;30.194;-97.880;2023-08-07T06:06:17;5.15;;;1.80;;
38879;SDS011;25887;30.194;-97.880;2023-08-07T06:09:05;7.80;;;1.77;;
38879;SDS011;25887;30.194;-97.880;2023-08-07T06:11:32;5.63;;;1.98;;
38879;SDS011;25887;30.194;-97.880;2023-08-07T06:13:58;3.45;;;1.88;;
38879;SDS011;25887;30.194;-97.880;2023-08-07T06:16:26;3.42;;;1.83;;
38879;SDS011;25887;30.194;-97.880;2023-08-07T06:18:53;3.47;;;1.73;;
38879;SDS011;25887;30.194;-97.880;2023-08-07T06:21:19;6.55;;;1.55;;
38879;SDS011;25887;30.194;-97.880;2023-08-07T06:23:45;3.22;;;1.75;;
38879;SDS011;25887;30.194;-97.880;2023-08-07T06:26:12;3.15;;;1.98;;
38879;SDS011;25887;30.194;-97.880;2023-08-07T06:34:17;5.38;;;1.70;;
38879;SDS011;25887;30.194;-97.880;2023-08-07T06:36:43;4.82;;;2.13;;
38879;SDS011;25887;30.194;-97.880;2023-08-07T06:39:10;4.93;;;1.90;;
38879;SDS011;25887;30.194;-97.880;2023-08-07T06:41:38;7.20;;;2.20;;
38879;SDS011;25887;30.194;-97.880;2023-08-07T06:44:16;2.50;;;1.77;;
38879;SDS011;25887;30.194;-97.880;2023-08-07T06:46:42;9.20;;;2.05;;
38879;SDS011;25887;30.194;-97.880;2023-08-07T06:49:14;2.90;;;1.63;;
38879;SDS011;25887;30.194;-97.880;2023-08-07T06:51:40;6.13;;;2.10;;
38879;SDS011;25887;30.194;-97.880;2023-08-07T06:54:06;5.75;;;2.17;;
38879;SDS011;25887;30.194;-97.880;2023-08-07T06:56:32;5.28;;;1.83;;
38879;SDS011;25887;30.194;-97.880;2023-08-07T06:58:58;6.30;;;2.20;;
38879;SDS011;25887;30.194;-97.880;2023-08-07T07:01:25;7.90;;;2.20;;
38879;SDS011;25887;30.194;-97.880;2023-08-07T07:03:51;4.00;;;1.58;;
38879;SDS011;25887;30.194;-97.880;2023-08-07T07:09:21;12.18;;;2.17;;
38879;SDS011;25887;30.194;-97.880;2023-08-07T07:11:47;5.30;;;2.28;;
38879;SDS011;25887;30.194;-97.880;2023-08-07T07:14:14;5.38;;;2.17;;
38879;SDS011;25887;30.194;-97.880;2023-08-07T07:16:40;6.78;;;2.10;;
38879;SDS011;25887;30.194;-97.880;2023-08-07T07:19:07;7.53;;;2.03;;
38879;SDS011;25887;30.194;-97.880;2023-08-07T07:21:34;4.68;;;2.03;;
38879;SDS011;25887;30.194;-97.880;2023-08-07T07:24:01;5.10;;;1.80;;
38879;SDS011;25887;30.194;-97.880;2023-08-07T07:26:28;4.15;;;1.80;;
38879;SDS011;25887;30.194;-97.880;2023-08-07T07:28:54;4.32;;;1.95;;
38879;SDS011;25887;30.194;-97.880;2023-08-07T07:31:22;6.90;;;2.17;;
38879;SDS011;25887;30.194;-97.880;2023-08-07T07:33:50;3.92;;;2.22;;
38879;SDS011;25887;30.194;-97.880;2023-08-07T07:36:16;3.38;;;2.00;;
38879;SDS011;25887;30.194;-97.880;2023-08-07T07:38:46;4.70;;;2.03;;
38879;SDS011;25887;30.194;-97.880;2023-08-07T07:41:15;4.68;;;1.88;;
38879;SDS011;25887;30.194;-97.880;2023-08-07T07:43:41;3.78;;;2.13;;
38879;SDS011;25887;30.194;-97.880;2023-08-07T07:46:08;5.28;;;2.50;;
38879;SDS011;25887;30.194;-97.880;2023-08-07T07:48:34;3.72;;;1.85;;
38879;SDS011;25887;30.194;-97.880;2023-08-07T07:51:02;5.18;;;2.10;;
38879;SDS011;25887;30.194;-97.880;2023-08-07T07:53:29;6.45;;;2.10;;
38879;SDS011;25887;30.194;-97.880;2023-08-07T07:55:55;6.10;;;1.80;;
38879;SDS011;25887;30.194;-97.880;2023-08-07T07:58:22;5.22;;;2.67;;
38879;SDS011;25887;30.194;-97.880;2023-08-07T08:00:48;3.75;;;2.15;;
38879;SDS011;25887;30.194;-97.880;2023-08-07T08:03:17;5.85;;;2.13;;
38879;SDS011;25887;30.194;-97.880;2023-08-07T08:05:43;8.10;;;2.42;;
38879;SDS011;25887;30.194;-97.880;2023-08-07T08:08:10;7.78;;;2.70;;
38879;SDS011;25887;30.194;-97.880;2023-08-07T08:10:36;5.00;;;2.03;;
38879;SDS011;25887;30.194;-97.880;2023-08-07T08:13:03;5.70;;;2.53;;
38879;SDS011;25887;30.194;-97.880;2023-08-07T08:15:29;6.35;;;2.08;;
38879;SDS011;25887;30.194;-97.880;2023-08-07T08:17:55;6.05;;;2.15;;
38879;SDS011;25887;30.194;-97.880;2023-08-07T08:20:22;4.60;;;1.80;;
38879;SDS011;25887;30.194;-97.880;2023-08-07T08:22:48;7.63;;;2.60;;
38879;SDS011;25887;30.194;-97.880;2023-08-07T08:25:14;6.32;;;2.00;;
38879;SDS011;25887;30.194;-97.880;2023-08-07T08:27:42;3.67;;;1.77;;
38879;SDS011;25887;30.194;-97.880;2023-08-07T08:30:09;3.13;;;2.00;;
38879;SDS011;25887;30.194;-97.880;2023-08-07T08:32:35;6.32;;;2.28;;
38879;SDS011;25887;30.194;-97.880;2023-08-07T08:35:01;6.30;;;2.28;;
38879;SDS011;25887;30.194;-97.880;2023-08-07T08:37:27;5.57;;;2.25;;
38879;SDS011;25887;30.194;-97.880;2023-08-07T08:39:54;9.52;;;2.30;;
38879;SDS011;25887;30.194;-97.880;2023-08-07T08:42:20;5.72;;;2.67;;
38879;SDS011;25887;30.194;-97.880;2023-08-07T08:44:48;2.10;;;1.90;;
38879;SDS011;25887;30.194;-97.880;2023-08-07T08:47:17;3.92;;;1.92;;
38879;SDS011;25887;30.194;-97.880;2023-08-07T08:49:59;4.90;;;2.33;;
38879;SDS011;25887;30.194;-97.880;2023-08-07T08:52:28;6.78;;;2.38;;
38879;SDS011;25887;30.194;-97.880;2023-08-07T08:54:56;5.32;;;2.42;;
38879;SDS011;25887;30.194;-97.880;2023-08-07T08:57:24;5.30;;;2.20;;
38879;SDS011;25887;30.194;-97.880;2023-08-07T08:59:51;7.85;;;2.13;;
38879;SDS011;25887;30.194;-97.880;2023-08-07T09:02:19;5.28;;;2.00;;
38879;SDS011;25887;30.194;-97.880;2023-08-07T09:04:46;4.22;;;2.15;;
38879;SDS011;25887;30.194;-97.880;2023-08-07T09:07:15;3.17;;;1.98;;
38879;SDS011;25887;30.194;-97.880;2023-08-07T09:09:42;11.68;;;2.85;;
38879;SDS011;25887;30.194;-97.880;2023-08-07T09:12:13;3.70;;;1.95;;
38879;SDS011;25887;30.194;-97.880;2023-08-07T09:14:48;4.15;;;1.85;;
38879;SDS011;25887;30.194;-97.880;2023-08-07T09:17:19;5.03;;;1.98;;
38879;SDS011;25887;30.194;-97.880;2023-08-07T09:19:49;8.07;;;2.33;;
38879;SDS011;25887;30.194;-97.880;2023-08-07T09:22:15;5.28;;;2.22;;
38879;SDS011;25887;30.194;-97.880;2023-08-07T09:24:41;6.57;;;2.30;;
38879;SDS011;25887;30.194;-97.880;2023-08-07T09:27:08;5.28;;;2.50;;
38879;SDS011;25887;30.194;-97.880;2023-08-07T09:29:34;7.22;;;2.25;;
38879;SDS011;25887;30.194;-97.880;2023-08-07T09:32:08;5.30;;;2.05;;
38879;SDS011;25887;30.194;-97.880;2023-08-07T09:34:41;8.20;;;2.42;;
38879;SDS011;25887;30.194;-97.880;2023-08-07T09:37:08;5.72;;;2.05;;
38879;SDS011;25887;30.194;-97.880;2023-08-07T09:39:40;7.47;;;2.35;;
38879;SDS011;25887;30.194;-97.880;2023-08-07T09:42:15;5.38;;;2.25;;
38879;SDS011;25887;30.194;-97.880;2023-08-07T09:44:42;7.93;;;2.35;;
38879;SDS011;25887;30.194;-97.880;2023-08-07T09:47:15;5.57;;;2.40;;
38879;SDS011;25887;30.194;-97.880;2023-08-07T09:49:43;4.68;;;2.10;;
38879;SDS011;25887;30.194;-97.880;2023-08-07T09:52:10;5.93;;;2.20;;
38879;SDS011;25887;30.194;-97.880;2023-08-07T09:54:59;12.77;;;3.37;;
38879;SDS011;25887;30.194;-97.880;2023-08-07T09:57:25;5.32;;;1.90;;
38879;SDS011;25887;30.194;-97.880;2023-08-07T09:59:52;6.05;;;2.30;;
38879;SDS011;25887;30.194;-97.880;2023-08-07T10:02:19;6.70;;;2.00;;
38879;SDS011;25887;30.194;-97.880;2023-08-07T10:04:46;5.25;;;2.60;;
38879;SDS011;25887;30.194;-97.880;2023-08-07T10:07:14;6.57;;;2.30;;
38879;SDS011;25887;30.194;-97.880;2023-08-07T10:09:40;6.53;;;2.40;;
38879;SDS011;25887;30.194;-97.880;2023-08-07T10:12:07;7.50;;;2.80;;
38879;SDS011;25887;30.194;-97.880;2023-08-07T10:14:34;8.02;;;2.30;;
38879;SDS011;25887;30.194;-97.880;2023-08-07T10:17:00;4.85;;;2.08;;
38879;SDS011;25887;30.194;-97.880;2023-08-07T10:19:26;5.60;;;2.58;;
38879;SDS011;25887;30.194;-97.880;2023-08-07T10:21:52;5.18;;;2.40;;
38879;SDS011;25887;30.194;-97.880;2023-08-07T10:24:19;4.25;;;2.10;;
38879;SDS011;25887;30.194;-97.880;2023-08-07T10:26:48;5.43;;;1.88;;
38879;SDS011;25887;30.194;-97.880;2023-08-07T10:29:16;3.83;;;2.47;;
38879;SDS011;25887;30.194;-97.880;2023-08-07T10:31:45;3.22;;;2.05;;
38879;SDS011;25887;30.194;-97.880;2023-08-07T10:34:12;3.92;;;2.13;;
38879;SDS011;25887;30.194;-97.880;2023-08-07T10:36:38;5.85;;;2.30;;
38879;SDS011;25887;30.194;-97.880;2023-08-07T10:39:06;3.28;;;2.30;;
38879;SDS011;25887;30.194;-97.880;2023-08-07T10:41:42;4.22;;;2.03;;
38879;SDS011;25887;30.194;-97.880;2023-08-07T10:44:22;3.45;;;2.30;;
38879;SDS011;25887;30.194;-97.880;2023-08-07T10:46:55;4.68;;;2.40;;
38879;SDS011;25887;30.194;-97.880;2023-08-07T10:49:30;5.13;;;2.15;;
38879;SDS011;25887;30.194;-97.880;2023-08-07T10:52:10;7.07;;;2.13;;
38879;SDS011;25887;30.194;-97.880;2023-08-07T10:54:40;8.60;;;2.40;;
38879;SDS011;25887;30.194;-97.880;2023-08-07T10:57:12;5.60;;;2.28;;
38879;SDS011;25887;30.194;-97.880;2023-08-07T10:59:43;4.05;;;2.25;;
38879;SDS011;25887;30.194;-97.880;2023-08-07T11:02:23;4.53;;;2.47;;
38879;SDS011;25887;30.194;-97.880;2023-08-07T11:04:51;5.63;;;2.15;;
38879;SDS011;25887;30.194;-97.880;2023-08-07T11:07:25;6.40;;;2.78;;
38879;SDS011;25887;30.194;-97.880;2023-08-07T11:12:25;9.48;;;2.63;;
38879;SDS011;25887;30.194;-97.880;2023-08-07T11:14:53;5.13;;;2.20;;
38879;SDS011;25887;30.194;-97.880;2023-08-07T11:17:25;5.32;;;2.58;;
38879;SDS011;25887;30.194;-97.880;2023-08-07T11:19:53;9.82;;;2.30;;
38879;SDS011;25887;30.194;-97.880;2023-08-07T11:22:20;3.15;;;2.00;;
38879;SDS011;25887;30.194;-97.880;2023-08-07T11:24:46;4.32;;;2.30;;
38879;SDS011;25887;30.194;-97.880;2023-08-07T11:27:12;4.00;;;2.05;;
38879;SDS011;25887;30.194;-97.880;2023-08-07T11:29:39;9.05;;;2.35;;
38879;SDS011;25887;30.194;-97.880;2023-08-07T11:32:05;4.65;;;2.10;;
38879;SDS011;25887;30.194;-97.880;2023-08-07T11:34:31;5.43;;;2.17;;
38879;SDS011;25887;30.194;-97.880;2023-08-07T11:36:58;7.35;;;2.30;;
38879;SDS011;25887;30.194;-97.880;2023-08-07T11:39:25;9.20;;;2.75;;
38879;SDS011;25887;30.194;-97.880;2023-08-07T11:41:51;7.00;;;2.17;;
38879;SDS011;25887;30.194;-97.880;2023-08-07T11:44:18;7.28;;;2.35;;
38879;SDS011;25887;30.194;-97.880;2023-08-07T11:46:44;8.60;;;2.50;;
38879;SDS011;25887;30.194;-97.880;2023-08-07T11:49:10;8.50;;;2.03;;
38879;SDS011;25887;30.194;-97.880;2023-08-07T11:51:37;5.78;;;2.38;;
38879;SDS011;25887;30.194;-97.880;2023-08-07T11:54:04;12.55;;;2.50;;
38879;SDS011;25887;30.194;-97.880;2023-08-07T11:56:30;4.10;;;2.30;;
38879;SDS011;25887;30.194;-97.880;2023-08-07T11:58:56;5.35;;;2.67;;
38879;SDS011;25887;30.194;-97.880;2023-08-07T12:01:23;5.50;;;2.38;;
38879;SDS011;25887;30.194;-97.880;2023-08-07T12:04:24;6.75;;;2.40;;
38879;SDS011;25887;30.194;-97.880;2023-08-07T12:06:53;5.83;;;2.83;;
38879;SDS011;25887;30.194;-97.880;2023-08-07T12:09:21;4.97;;;2.90;;
38879;SDS011;25887;30.194;-97.880;2023-08-07T12:11:47;3.67;;;1.98;;
38879;SDS011;25887;30.194;-97.880;2023-08-07T12:14:13;7.80;;;2.45;;
38879;SDS011;25887;30.194;-97.880;2023-08-07T12:16:44;5.03;;;2.47;;
38879;SDS011;25887;30.194;-97.880;2023-08-07T12:19:13;7.20;;;2.28;;
38879;SDS011;25887;30.194;-97.880;2023-08-07T12:21:40;7.65;;;2.17;;
38879;SDS011;25887;30.194;-97.880;2023-08-07T12:24:06;8.35;;;2.55;;
38879;SDS011;25887;30.194;-97.880;2023-08-07T12:26:33;4.80;;;2.25;;
38879;SDS011;25887;30.194;-97.880;2023-08-07T12:29:00;4.25;;;2.17;;
38879;SDS011;25887;30.194;-97.880;2023-08-07T12:31:27;5.80;;;1.75;;
38879;SDS011;25887;30.194;-97.880;2023-08-07T12:33:53;8.55;;;2.22;;
38879;SDS011;25887;30.194;-97.880;2023-08-07T12:36:19;4.18;;;2.00;;
38879;SDS011;25887;30.194;-97.880;2023-08-07T12:38:47;3.63;;;1.85;;
38879;SDS011;25887;30.194;-97.880;2023-08-07T12:41:13;6.70;;;2.63;;
38879;SDS011;25887;30.194;-97.880;2023-08-07T12:43:41;3.67;;;1.88;;
38879;SDS011;25887;30.194;-97.880;2023-08-07T12:46:07;5.50;;;2.30;;
38879;SDS011;25887;30.194;-97.880;2023-08-07T12:48:33;4.50;;;2.17;;
38879;SDS011;25887;30.194;-97.880;2023-08-07T12:50:59;4.72;;;2.15;;
38879;SDS011;25887;30.194;-97.880;2023-08-07T12:53:25;5.40;;;2.30;;
38879;SDS011;25887;30.194;-97.880;2023-08-07T12:55:52;4.95;;;1.80;;
38879;SDS011;25887;30.194;-97.880;2023-08-07T12:58:18;6.05;;;2.13;;
38879;SDS011;25887;30.194;-97.880;2023-08-07T13:00:47;2.63;;;1.73;;
38879;SDS011;25887;30.194;-97.880;2023-08-07T13:03:13;6.88;;;2.00;;
38879;SDS011;25887;30.194;-97.880;2023-08-07T13:05:39;6.75;;;2.10;;
38879;SDS011;25887;30.194;-97.880;2023-08-07T13:08:05;5.70;;;2.13;;
38879;SDS011;25887;30.194;-97.880;2023-08-07T13:10:31;10.88;;;2.53;;
38879;SDS011;25887;30.194;-97.880;2023-08-07T13:12:57;5.72;;;2.35;;
38879;SDS011;25887;30.194;-97.880;2023-08-07T13:15:25;6.75;;;2.50;;
38879;SDS011;25887;30.194;-97.880;2023-08-07T13:17:51;4.25;;;2.00;;
38879;SDS011;25887;30.194;-97.880;2023-08-07T13:20:17;6.18;;;2.20;;
38879;SDS011;25887;30.194;-97.880;2023-08-07T13:22:45;6.80;;;2.05;;
38879;SDS011;25887;30.194;-97.880;2023-08-07T13:25:12;4.72;;;2.17;;
38879;SDS011;25887;30.194;-97.880;2023-08-07T13:27:39;6.07;;;2.08;;
38879;SDS011;25887;30.194;-97.880;2023-08-07T13:30:06;5.97;;;2.30;;
38879;SDS011;25887;30.194;-97.880;2023-08-07T13:32:34;4.22;;;1.83;;
38879;SDS011;25887;30.194;-97.880;2023-08-07T13:35:00;5.60;;;2.08;;
38879;SDS011;25887;30.194;-97.880;2023-08-07T13:37:27;4.97;;;2.42;;
38879;SDS011;25887;30.194;-97.880;2023-08-07T13:39:53;4.70;;;1.80;;
38879;SDS011;25887;30.194;-97.880;2023-08-07T13:42:23;6.88;;;2.03;;
38879;SDS011;25887;30.194;-97.880;2023-08-07T13:44:50;7.07;;;2.13;;
38879;SDS011;25887;30.194;-97.880;2023-08-07T13:47:16;8.70;;;1.80;;
38879;SDS011;25887;30.194;-97.880;2023-08-07T13:49:43;13.93;;;2.55;;
38879;SDS011;25887;30.194;-97.880;2023-08-07T13:52:09;5.00;;;2.05;;
38879;SDS011;25887;30.194;-97.880;2023-08-07T13:54:35;2.53;;;1.60;;
38879;SDS011;25887;30.194;-97.880;2023-08-07T13:57:03;7.90;;;2.33;;
38879;SDS011;25887;30.194;-97.880;2023-08-07T13:59:30;11.00;;;2.58;;
38879;SDS011;25887;30.194;-97.880;2023-08-07T14:01:57;4.00;;;2.05;;
38879;SDS011;25887;30.194;-97.880;2023-08-07T14:04:24;3.83;;;1.73;;
38879;SDS011;25887;30.194;-97.880;2023-08-07T14:06:52;7.72;;;2.08;;
38879;SDS011;25887;30.194;-97.880;2023-08-07T14:09:18;8.02;;;1.95;;
38879;SDS011;25887;30.194;-97.880;2023-08-07T14:11:47;5.57;;;2.17;;
38879;SDS011;25887;30.194;-97.880;2023-08-07T14:14:16;5.45;;;2.28;;
38879;SDS011;25887;30.194;-97.880;2023-08-07T14:16:42;4.70;;;1.85;;
38879;SDS011;25887;30.194;-97.880;2023-08-07T14:19:08;5.95;;;1.60;;
38879;SDS011;25887;30.194;-97.880;2023-08-07T14:21:35;6.53;;;2.22;;
38879;SDS011;25887;30.194;-97.880;2023-08-07T14:24:01;6.90;;;1.95;;
38879;SDS011;25887;30.194;-97.880;2023-08-07T14:26:27;10.20;;;2.80;;
38879;SDS011;25887;30.194;-97.880;2023-08-07T14:28:54;8.25;;;2.45;;
38879;SDS011;25887;30.194;-97.880;2023-08-07T14:31:20;4.50;;;2.22;;
38879;SDS011;25887;30.194;-97.880;2023-08-07T14:33:47;4.50;;;1.83;;
38879;SDS011;25887;30.194;-97.880;2023-08-07T14:36:13;4.20;;;1.70;;
38879;SDS011;25887;30.194;-97.880;2023-08-07T14:38:40;8.52;;;2.38;;
38879;SDS011;25887;30.194;-97.880;2023-08-07T14:41:06;3.97;;;1.95;;
38879;SDS011;25887;30.194;-97.880;2023-08-07T14:43:32;6.75;;;2.45;;
38879;SDS011;25887;30.194;-97.880;2023-08-07T14:45:58;5.85;;;2.10;;
38879;SDS011;25887;30.194;-97.880;2023-08-07T14:48:25;5.60;;;1.90;;
38879;SDS011;25887;30.194;-97.880;2023-08-07T14:50:51;7.07;;;2.17;;
38879;SDS011;25887;30.194;-97.880;2023-08-07T14:53:17;7.60;;;2.20;;
38879;SDS011;25887;30.194;-97.880;2023-08-07T14:55:44;5.47;;;2.25;;
38879;SDS011;25887;30.194;-97.880;2023-08-07T14:58:11;7.25;;;2.05;;
38879;SDS011;25887;30.194;-97.880;2023-08-07T15:00:37;6.47;;;2.25;;
38879;SDS011;25887;30.194;-97.880;2023-08-07T15:03:04;3.60;;;1.70;;
38879;SDS011;25887;30.194;-97.880;2023-08-07T15:05:30;9.07;;;1.90;;
38879;SDS011;25887;30.194;-97.880;2023-08-07T15:07:57;12.45;;;2.40;;
38879;SDS011;25887;30.194;-97.880;2023-08-07T15:10:23;4.70;;;1.92;;
38879;SDS011;25887;30.194;-97.880;2023-08-07T15:12:50;4.97;;;1.92;;
38879;SDS011;25887;30.194;-97.880;2023-08-07T15:15:16;5.75;;;1.75;;
38879;SDS011;25887;30.194;-97.880;2023-08-07T15:17:42;6.82;;;2.33;;
38879;SDS011;25887;30.194;-97.880;2023-08-07T15:20:08;8.93;;;2.30;;
38879;SDS011;25887;30.194;-97.880;2023-08-07T15:22:35;7.10;;;2.38;;
38879;SDS011;25887;30.194;-97.880;2023-08-07T15:25:01;10.40;;;2.25;;
38879;SDS011;25887;30.194;-97.880;2023-08-07T15:27:27;8.23;;;1.92;;
38879;SDS011;25887;30.194;-97.880;2023-08-07T15:29:54;4.70;;;2.10;;